< Typhoon 197717 1977 Season Typhoon 197719 >
Typhoon 197718 (JEAN)
General InformationTrack Information on Google MapsDetailed Wind Information || Disaster Info.ResourceGoogle EarthGE AnimationAtom FeedGeoJSON
Detalied Best Track (Time Zone = UTC)
Year Month Day Hour Lat. Long. Pressure (hPa) Wind (kt) Class Image Chart
1977 10 28 00 17.3 158.5 1008 0 2 -- Chart
1977 10 28 06 18.0 157.8 1004 0 2 -- Chart
1977 10 28 12 18.7 157.2 1002 0 2 -- Chart
1977 10 28 18 19.3 156.7 996 0 2 -- Chart
1977 10 29 00 20.1 156.3 985 35 3 -- Chart
1977 10 29 06 21.0 156.2 980 55 4 -- Chart
1977 10 29 12 21.5 156.5 975 60 4 -- Chart
1977 10 29 18 21.9 157.1 970 65 5 -- Chart
1977 10 30 00 22.7 157.2 975 65 5 -- Chart
1977 10 30 06 23.5 157.4 975 65 5 -- Chart
1977 10 30 12 23.8 157.3 975 60 4 -- Chart
1977 10 30 18 24.0 156.7 980 55 4 -- Chart
1977 10 31 00 24.5 156.0 980 50 4 -- Chart
1977 10 31 06 24.6 154.8 985 45 3 -- Chart
1977 10 31 12 25.0 153.0 990 45 3 -- Chart
1977 10 31 18 25.2 151.3 992 40 3 -- Chart
1977 11 1 00 25.7 149.7 992 40 3 -- Chart
1977 11 1 06 25.9 148.8 992 40 3 -- Chart
1977 11 1 12 26.2 147.9 992 40 3 -- Chart
1977 11 1 18 26.3 147.0 992 40 3 -- Chart
1977 11 2 00 26.6 146.0 992 40 3 -- Chart
1977 11 2 06 27.2 145.7 992 40 3 -- Chart
1977 11 2 12 27.2 146.0 996 40 3 -- Chart
1977 11 2 18 27.2 146.5 1008 0 2 -- Chart
1977 11 3 00 27.2 146.7 1008 0 2 -- Chart
1977 11 3 06 26.3 146.2 1004 0 2 -- Chart
1977 11 3 12 25.8 145.3 1008 0 2 -- Chart
1977 11 3 18 25.1 144.6 1010 0 2 -- Chart
1977 11 4 00 24.7 143.8 1012 0 2 -- Chart
1977 11 4 06 24.2 142.8 1012 0 2 -- Chart
1977 11 4 12 24.0 141.0 1012 0 2 -- Chart
1977 11 4 18 24.0 140.4 1012 0 2 -- Chart
1977 11 5 00 24.0 139.4 1012 0 2 -- Chart
1977 11 5 06 24.0 138.0 1012 0 2 -- Chart
Japan Meteorological Agency Best Track Data | Correction Date : 1992-10-21
< Typhoon 197717 1977 Season Typhoon 197719 >

Help